Weather

Vsebine: Paragliding sitesCurrent conditionsCurrent conditions (amateur)Radar rainfal imageMeteo stationsPanoramic cameras


Current conditions (official report)

Show amateur stations

Click on a specific station to see its location

Location Weather conditions Temperature Wind Air pressure Last updated Geopedia
    °C direction speed (m/s) gusts (m/s) hPa    
Babno Polje 16   - - 2019-07-22 03:13:00
Babno Polje (756 m) 5   - - 2016-01-12 07:40:00
Bilje Nova Gorica 20   1 1 1021 2019-07-22 03:13:00
Bilje pri Novi Gorici 20   1 - 1021 2019-07-22 03:12:00
Blegoš 16   - - 2019-07-22 03:13:00
Bohinjska Češnjica 15   - - 2019-07-22 03:13:00
Boršt Gorenja vas 17   1 1 1024 2019-07-22 03:06:00
Bovec 16   1 2 1023 2019-07-22 03:07:00
Breginj 16   - - 2019-07-22 03:13:00
Bukovski vrh 18   - - 2019-07-22 03:13:00
Celje 19   1 - 1023 2019-07-22 03:12:00
Cerkniško jezero 17   - - 2019-07-22 03:13:00
Črnomelj 19   - - 1023 2019-07-22 03:12:00
Davča 16   - - 2019-07-22 03:13:00
Dobliče Črnomelj 19   - 1 1023 2019-07-22 03:03:00
Dolenje Ajdovščina 24   2 4 2019-07-22 03:06:00
Gačnik 17   1 1 2019-07-22 03:13:00
Godnje 21   2 4 2019-07-22 03:13:00
Gornji Grad 17   - - 2019-07-22 03:13:00
Hočko Pohorje 19   - - 2019-07-22 03:13:00
Hrastnik 19   - 1 1023 2019-07-22 03:06:00
Idrija 17   - - 2019-07-22 03:13:00
Ilirska Bistrica 16   1 2 2019-07-22 03:06:00
Iskrba 15   - - 2019-07-22 03:13:00
Jeronim 17   - - 2019-07-22 03:13:00
Jeruzalem 20   - - 2019-07-22 03:13:00
Jezersko 13   - - 2019-07-22 03:14:00
Juršče   - - 2016-09-13 14:33:00
Kamniška Bistrica 16   - - 2019-07-22 03:13:00
Kanin 12   - - 2019-07-22 03:13:00
Katarina nad Ljubljano 21   - - 2019-07-21 20:42:00
Kočevje 17   1 2 2019-07-22 03:13:00
Koper Kapitanija 24   1 3 1021 2019-07-22 03:06:00
Korensko sedlo 15   - - 2019-07-22 03:13:00
Kraj. park Goričko 21   3 4 2019-07-22 03:05:00
Kranj 18   - - 2019-07-22 03:13:00
Kredarica 9   3 4 2019-07-22 03:13:00
Krn 18   - - 2019-07-22 03:13:00
Krško 20   1 2 1023 2019-07-22 03:09:00
Krvavec 14   1 2 2019-07-22 03:13:00
Kubed 30   - - 2019-07-21 14:13:00
Kum 16   2 2 2019-07-22 03:13:00
Lendava 20   - 3 1023 2019-07-22 03:07:00
Let. E. Rusjana Maribor 18   1 2 1023 2019-07-22 03:05:00
Let. J. Pučnika Lj. 0   2 3 1011 2015-11-26 11:03:00
Let. J. Pučnika Ljubljana 18   2 2 2019-07-22 03:14:00
Letališče Cerklje ob Krki 19   1 - 1023 2019-07-22 03:12:00
Letališče Edvarda Rusjana Maribor 18   1 - 1023 2019-07-22 03:12:00
Letališče Jožeta Pučnika Ljubljana 18   3 - 1023 2019-07-22 03:12:00
Letališče Lesce 16   1 - 1024 2019-07-22 03:12:00
Letališče Portorož 21   3 - 1020 2019-07-22 03:12:00
Lisca 18   2 3 2019-07-22 03:13:00
Lisca (943 m) 9   5 12 2016-03-29 14:02:00
Litija 19   - - 2019-07-22 03:13:00
Ljubljana 20   - - 1023 2019-07-22 03:12:00
Logarska dolina 14   - - 2019-07-22 03:13:00
Logatec 17   - - 2019-07-22 03:13:00
Luka Koper 24   1 3 2019-07-22 03:06:00
Malkovec 19   - 1 1024 2019-07-22 03:07:00
Maribor 19   2 4 2019-07-22 03:14:00
Maribor - Tabor 18   1 2 2019-07-22 03:02:00
Marinča vas 17   - - 2019-07-22 03:13:00
Metlika 18   - - 2019-07-22 03:13:00
Mežica 17   - - 2019-07-22 03:13:00
Miklavž na Gorjancih 18   - - 2019-07-22 03:13:00
Murska Sobota 18   1 1 1023 2019-07-22 03:13:00
Nanos 16   6 10 2019-07-22 03:13:00
Nova Gorica 21   - 2 2019-07-22 03:06:00
Nova vas - Bloke 16   - - 2019-07-22 03:13:00
Novo mesto 19   1 1 1023 2019-07-22 03:13:00
Osilnica 18   - - 2019-07-22 03:13:00
Otlica 17   3 6 2019-07-22 03:03:00
Otlica (965 m) 7   4 7 2016-03-31 08:24:00
Park Škocj. jame 20   1 2 1022 2019-07-22 03:02:00
Pasja ravan 16   2 4 2019-07-22 03:13:00
Pavličevo sedlo 16   - - 2019-07-22 03:13:00
Piran-ocean. boja 26   1 2 2019-07-21 00:07:00
Planina pod Golico 15   - - 2019-07-22 03:13:00
Podčetrtek 19   - 1 1022 2019-07-22 03:03:00
Podnanos 20   1 2 2019-07-22 03:14:00
Postojna 18   1 3 1023 2019-07-22 03:13:00
Predel 15   - - 2019-07-22 03:13:00
Ptuj 18   1 1 2019-07-22 03:14:00
Ptuj - Terme -2   2 3 2017-01-19 14:35:00
Radegunda 17   - - 2019-07-22 03:13:00
Radenci 18   - - 1024 2019-07-22 03:05:00
Rateče 13   - - 2019-07-22 03:12:00
Rateče (864 m) 13   - 1 2019-07-22 03:05:00
Ratitovec 14   3 5 2019-07-22 03:13:00
Ravne na Koroškem 18   1 1 2019-07-22 03:07:00
Rogaška Slatina 18   - 1 2019-07-22 03:14:00
Rogla 14   2 4 2019-07-22 03:14:00
Rogla (1492 m) -11   4 7 2016-01-18 10:32:00
Rudno polje 11   - 1 2019-07-22 03:13:00
Rudno polje (1347 m) -2   1 3 2015-10-20 07:36:00
Sevno 20   - - 2019-07-22 03:13:00
Slavnik 17   7 8 2019-07-22 03:13:00
Slovenj Gradec 18   1 - 2019-07-22 03:12:00
Slovenske Konjice 19   - - 2019-07-22 03:13:00
Sviščaki 15   2 7 2019-07-22 03:13:00
Šebreljski vrh 16   - - 2019-07-22 03:14:00
Šmartno pri Slovenj Gradcu 18   1 1 2019-07-22 03:14:00
Tatre 18   - - 2019-07-22 03:13:00
Tolmin - Volče 18   1 1 2019-07-22 03:13:00
Topol 19   - - 2019-07-22 03:13:00
Trbovlje 19   1 2 2019-07-22 03:07:00
Trebnje 19   - - 2019-07-22 03:14:00
Trije Kralji na Pohorju 15   - - 2019-07-22 03:14:00
Trojane - Limovce 18   2 3 1023 2019-07-22 03:14:00
Uršlja gora 13   4 7 2019-07-22 03:13:00
Vedrijan 23   - - 2019-07-22 03:13:00
Velenje 19   - - 2019-07-22 03:14:00
Velike Lašče 17   1 1 2019-07-22 03:13:00
Vogel 13   1 2 2019-07-22 03:14:00
Vojsko 25   - - 2019-07-21 14:42:00
Vrbanski plato -2   2 3 2016-12-07 11:23:00
Vrhnika 18   - 1 2019-07-22 03:14:00
Vršič 13   - - 2019-07-22 03:13:00
Zadlog 14   - - 2019-07-22 03:13:00
Zelenica 12   - - 2019-07-22 03:13:00
Zgornja Kapla 16   1 2 2019-07-22 03:14:00
Zgornja Radovna 13   - - 2019-07-22 03:14:00
Zgornja Sorica 15   - - 2019-07-22 03:13:00
Source: Slovenian Environmental Agency, meteo.si